Time;durP1;ratioP1;P1;durP2;ratioP2;P2;SDS_P1;SDS_P2;PMS_P1;PMS_P2;Temp;Humidity;BMP_temperature;BMP_pressure;BME280_temperature;BME280_humidity;BME280_pressure;Samples;Min_cycle;Max_cycle;Signal;HPM_P1;HPM_P2
2021/12/17 15:41:22;;;;;;;6.77;6.07;;;;;;;7.12;100.00;103917.31;5242580;27;20392;-87
2021/12/17 15:43:53;;;;;;;7.97;6.50;;;;;;;7.19;100.00;103926.03;5243791;27;20034;-87
2021/12/17 15:46:24;;;;;;;8.77;6.90;;;;;;;7.21;100.00;103925.16;5243311;27;20036;-87
2021/12/17 15:48:55;;;;;;;6.67;6.07;;;;;;;7.17;100.00;103905.19;5244582;27;20035;-85
2021/12/17 15:51:27;;;;;;;7.50;6.80;;;;;;;7.26;99.84;103913.03;5237777;27;20074;-89
2021/12/17 15:53:58;;;;;;;6.93;5.93;;;;;;;7.35;100.00;103921.72;5241278;27;20041;-89
2021/12/17 15:56:31;;;;;;;7.50;6.33;;;;;;;7.42;99.99;103923.50;5242411;27;20033;-90
2021/12/17 15:59:03;;;;;;;8.27;6.60;;;;;;;7.38;98.62;103932.19;5341837;27;20039;-90
2021/12/17 16:01:34;;;;;;;7.50;6.70;;;;;;;7.31;98.81;103914.78;5289686;27;20044;-91
2021/12/17 16:04:06;;;;;;;9.67;7.00;;;;;;;7.43;98.93;103912.22;5243742;27;20037;-88
2021/12/17 16:06:37;;;;;;;8.83;6.70;;;;;;;7.41;97.88;103908.72;5244159;27;20037;-91
2021/12/17 16:09:23;;;;;;;10.77;7.43;;;;;;;7.44;98.58;103927.00;5251808;27;20033;-89
2021/12/17 16:12:04;;;;;;;9.17;8.13;;;;;;;7.44;97.45;103913.06;5240751;27;20023;-89
2021/12/17 16:22:53;;;;;;;11.63;8.30;;;;;;;7.58;96.79;103918.34;5244676;27;20041;-90
2021/12/17 16:25:24;;;;;;;9.07;8.20;;;;;;;7.47;96.73;103911.34;5243921;27;20029;-93
2021/12/17 16:27:56;;;;;;;14.90;9.60;;;;;;;7.46;97.11;103913.97;5245880;27;20018;-90
2021/12/17 16:30:27;;;;;;;11.07;9.97;;;;;;;7.47;95.89;103913.97;5244434;27;20029;-94
2021/12/17 16:32:58;;;;;;;10.53;9.23;;;;;;;7.41;96.79;103913.94;5246072;27;20033;-93
2021/12/17 16:35:30;;;;;;;10.47;9.57;;;;;;;7.45;97.39;103907.00;5244005;27;20085;-90
2021/12/17 16:38:01;;;;;;;10.37;9.37;;;;;;;7.52;96.81;103918.31;5243280;27;20061;-88
2021/12/17 16:40:32;;;;;;;11.73;10.57;;;;;;;7.51;96.93;103922.66;5245258;27;20052;-86
2021/12/17 16:43:04;;;;;;;10.90;9.73;;;;;;;7.64;96.00;103923.59;5242700;27;20029;-86
2021/12/17 16:45:41;;;;;;;10.37;9.20;;;;;;;7.55;95.93;103921.81;5247230;27;20104;-90
2021/12/17 16:48:13;;;;;;;12.23;10.97;;;;;;;7.62;94.92;103928.81;5352432;27;20050;-89
2021/12/17 16:50:44;;;;;;;10.97;9.87;;;;;;;7.62;95.97;103925.31;5348354;27;20079;-89
2021/12/17 16:53:15;;;;;;;16.20;11.30;;;;;;;7.63;94.91;103932.25;5337116;27;20027;-85
2021/12/17 16:55:46;;;;;;;12.20;11.00;;;;;;;7.64;95.49;103926.19;5336798;27;20019;-87
2021/12/17 16:58:18;;;;;;;12.73;11.43;;;;;;;7.66;95.85;103929.69;5336152;27;20031;-86
2021/12/17 17:00:49;;;;;;;13.40;10.80;;;;;;;7.60;95.30;103917.47;5337113;27;20523;-86
2021/12/17 17:03:21;;;;;;;11.13;10.03;;;;;;;7.70;95.60;103930.53;5336607;27;20019;-86
2021/12/17 17:05:53;;;;;;;12.17;11.07;;;;;;;7.71;95.68;103935.78;5344684;27;20035;-85
2021/12/17 17:08:25;;;;;;;12.13;10.93;;;;;;;7.55;94.53;103931.38;5336975;27;20027;-85
2021/12/17 17:11:01;;;;;;;12.20;11.10;;;;;;;7.52;94.94;103932.25;5336869;27;20053;-81
2021/12/17 17:13:33;;;;;;;11.43;10.33;;;;;;;7.58;95.77;103931.38;5336400;27;20019;-84
2021/12/17 17:16:05;;;;;;;12.60;11.30;;;;;;;7.61;95.37;103939.22;5337432;27;20034;-86
2021/12/17 17:18:38;;;;;;;12.77;11.57;;;;;;;7.63;95.53;103945.31;5339833;27;20019;-79
2021/12/17 17:21:10;;;;;;;13.53;11.97;;;;;;;7.57;95.50;103935.75;5299730;27;20037;-84
2021/12/17 17:23:42;;;;;;;11.53;10.33;;;;;;;7.68;95.71;103930.53;5227812;28;20479;-82
2021/12/17 17:26:15;;;;;;;12.17;10.87;;;;;;;7.56;95.63;103940.94;5227013;28;20025;-83
2021/12/17 17:28:46;;;;;;;11.87;10.13;;;;;;;7.67;94.67;103927.91;5223466;27;20150;-82
2021/12/17 17:31:18;;;;;;;11.20;10.07;;;;;;;7.67;94.44;103936.63;5239939;27;20022;-75
2021/12/17 17:33:49;;;;;;;11.70;9.73;;;;;;;7.58;95.54;103940.06;5264050;27;20018;-81
2021/12/17 17:36:23;;;;;;;12.23;11.03;;;;;;;7.69;95.17;103941.84;5243285;27;20072;-81
2021/12/17 17:38:55;;;;;;;11.07;9.97;;;;;;;7.67;94.58;103943.56;5264791;27;20030;-81
2021/12/17 17:41:27;;;;;;;11.07;9.63;;;;;;;7.69;94.75;103947.94;5287903;27;20029;-80
2021/12/17 17:43:59;;;;;;;12.37;11.17;;;;;;;7.72;94.77;103950.56;5227777;28;20051;-80
2021/12/17 17:46:31;;;;;;;12.17;10.73;;;;;;;7.72;94.31;103958.38;5276187;27;20258;-81
2021/12/17 17:49:04;;;;;;;14.17;11.00;;;;;;;7.60;94.53;103940.06;5321488;27;20164;-80
2021/12/17 17:51:36;;;;;;;11.57;10.47;;;;;;;7.75;94.13;103947.06;5228372;28;20030;-79
2021/12/17 17:54:07;;;;;;;14.93;12.77;;;;;;;7.60;94.58;103942.69;5227865;28;20029;-80
2021/12/17 17:56:38;;;;;;;12.90;11.60;;;;;;;7.79;94.86;103945.34;5225150;28;20565;-81
2021/12/17 17:59:10;;;;;;;12.90;11.60;;;;;;;7.67;95.21;103944.44;5227125;28;20040;-79
2021/12/17 18:01:44;;;;;;;11.53;10.43;;;;;;;7.63;94.81;103927.03;5228382;28;20030;-83
2021/12/17 18:04:15;;;;;;;13.25;11.88;;;;;;;7.69;94.20;103939.25;5226557;28;20017;-79
2021/12/17 18:06:51;;;;;;;11.17;10.07;;;;;;;7.73;93.71;103938.38;5228703;28;20029;-81
2021/12/17 18:09:23;;;;;;;11.90;10.53;;;;;;;7.67;94.57;103934.00;5226343;28;20021;-79
2021/12/17 18:11:54;;;;;;;13.70;12.23;;;;;;;7.71;95.78;103919.25;5225736;28;20021;-80
2021/12/17 18:14:25;;;;;;;13.00;11.47;;;;;;;7.72;96.80;103934.00;5226596;28;20109;-79
2021/12/17 18:16:56;;;;;;;13.43;12.03;;;;;;;7.69;95.38;103927.06;5226225;28;20033;-80
2021/12/17 18:19:28;;;;;;;13.23;11.70;;;;;;;7.77;94.82;103939.28;5225618;27;20104;-79
2021/12/17 18:21:59;;;;;;;11.90;10.70;;;;;;;7.86;94.69;103941.88;5226592;27;20024;-79
2021/12/17 18:24:30;;;;;;;12.40;11.20;;;;;;;7.82;94.78;103943.59;5227084;28;20024;-79
2021/12/17 18:27:04;;;;;;;12.23;11.00;;;;;;;7.88;94.77;103937.53;5225789;28;20030;-78
2021/12/17 18:29:35;;;;;;;15.03;12.90;;;;;;;7.90;95.08;103940.16;5226035;28;20045;-80
2021/12/17 18:32:08;;;;;;;13.17;11.87;;;;;;;7.89;94.37;103939.25;5222259;28;20031;-80
2021/12/17 18:34:39;;;;;;;12.57;11.37;;;;;;;7.84;94.35;103935.78;5233212;27;20017;-80
2021/12/17 18:37:10;;;;;;;12.67;11.37;;;;;;;7.84;94.31;103948.81;5236718;27;20031;-81
2021/12/17 18:39:43;;;;;;;14.83;11.43;;;;;;;7.72;95.07;103940.13;5231042;27;20132;-82
2021/12/17 18:45:05;;;;;;;13.20;11.93;;;;;;;7.68;94.91;103927.06;5219259;28;20033;-81
2021/12/17 18:47:36;;;;;;;13.50;12.20;;;;;;;7.78;94.59;103934.03;5219010;27;20034;-81
2021/12/17 18:50:08;;;;;;;16.03;13.00;;;;;;;7.82;95.25;103935.78;5217670;28;20013;-73
2021/12/17 18:52:39;;;;;;;12.87;11.67;;;;;;;7.82;95.12;103932.31;5219987;28;20461;-80
2021/12/17 18:55:10;;;;;;;12.77;11.57;;;;;;;7.84;94.72;103938.38;5220747;27;20067;-79
2021/12/17 18:57:42;;;;;;;13.13;11.87;;;;;;;7.83;94.93;103944.47;5219267;28;20025;-77
2021/12/17 19:00:13;;;;;;;13.23;11.93;;;;;;;7.79;94.63;103947.94;5224401;28;20029;-83
2021/12/17 19:02:45;;;;;;;13.10;11.67;;;;;;;7.73;94.52;103941.00;5219551;28;20067;-86
2021/12/17 19:05:16;;;;;;;14.80;13.30;;;;;;;7.91;94.10;103952.31;5218029;28;20094;-80
2021/12/17 19:07:48;;;;;;;12.90;11.53;;;;;;;7.88;94.17;103955.81;5218929;28;20789;-78
2021/12/17 19:10:20;;;;;;;14.27;12.93;;;;;;;7.80;94.60;103957.53;5219658;28;20033;-74
2021/12/17 19:12:52;;;;;;;13.50;12.20;;;;;;;7.65;94.40;103937.47;5219853;28;20049;-78
2021/12/17 19:15:24;;;;;;;14.60;12.37;;;;;;;7.85;95.13;103953.19;5217589;28;20144;-83
2021/12/17 19:17:55;;;;;;;13.90;12.60;;;;;;;7.89;94.77;103944.47;5221740;27;20035;-88
2021/12/17 19:20:39;;;;;;;14.93;13.37;;;;;;;7.99;95.51;103943.63;5219155;28;20033;-79
2021/12/17 19:23:11;;;;;;;13.50;12.10;;;;;;;7.89;95.35;103941.03;5218489;28;20096;-74
2021/12/17 19:25:42;;;;;;;14.30;12.93;;;;;;;7.95;95.39;103936.69;5218657;28;20483;-77
2021/12/17 19:28:14;;;;;;;14.93;13.40;;;;;;;7.92;95.03;103941.03;5220877;28;20380;-80
2021/12/17 19:30:45;;;;;;;14.83;13.03;;;;;;;7.86;94.51;103932.31;5226354;27;20536;-83
2021/12/17 19:33:16;;;;;;;15.63;14.03;;;;;;;7.94;94.83;103944.50;5224034;27;20025;-76
2021/12/17 19:35:47;;;;;;;15.13;13.60;;;;;;;7.90;94.74;103941.03;5218471;28;20028;-75
2021/12/17 19:38:19;;;;;;;14.97;13.47;;;;;;;7.79;95.08;103937.50;5214806;28;20086;-74
2021/12/17 19:40:50;;;;;;;16.20;14.60;;;;;;;7.83;95.20;103939.25;5218270;28;20053;-76
2021/12/17 19:43:22;;;;;;;16.27;14.50;;;;;;;7.86;95.20;103944.47;5212450;28;20419;-71
2021/12/17 19:45:55;;;;;;;17.40;15.73;;;;;;;7.91;94.97;103947.97;5219282;28;20045;-81
2021/12/17 19:48:35;;;;;;;16.20;14.70;;;;;;;7.81;95.20;103946.22;5215051;28;20053;-79
2021/12/17 19:51:07;;;;;;;15.80;14.20;;;;;;;7.91;95.49;103947.97;5221569;28;20910;-80
2021/12/17 19:53:39;;;;;;;16.60;14.90;;;;;;;7.93;95.23;103946.25;5219800;28;20033;-77
2021/12/17 19:56:10;;;;;;;16.97;15.17;;;;;;;7.85;94.88;103947.97;5233826;28;20034;-78
2021/12/17 19:58:41;;;;;;;16.63;14.93;;;;;;;7.81;94.93;103935.78;5218947;28;20029;-83
2021/12/17 20:01:12;;;;;;;16.63;15.00;;;;;;;7.83;95.24;103949.72;5224316;28;20116;-91
2021/12/17 20:03:53;;;;;;;18.07;16.27;;;;;;;7.77;95.34;103949.72;5218666;28;20055;-92
2021/12/17 20:06:25;;;;;;;16.43;14.73;;;;;;;7.85;95.87;103954.03;5220498;28;20044;-76
2021/12/17 20:08:56;;;;;;;19.17;16.43;;;;;;;7.81;95.69;103951.44;5220327;28;20420;-80
2021/12/17 20:11:28;;;;;;;16.80;15.17;;;;;;;7.86;95.89;103955.81;5213651;28;20085;-74
2021/12/17 20:13:59;;;;;;;18.73;15.67;;;;;;;7.81;95.58;103947.09;5228670;28;20029;-83
2021/12/17 20:16:30;;;;;;;17.37;15.57;;;;;;;7.82;96.09;103945.38;5218934;28;20021;-80
2021/12/17 20:19:04;;;;;;;17.33;15.53;;;;;;;7.87;95.78;103944.47;5221694;28;20094;-76
2021/12/17 20:21:37;;;;;;;19.08;15.50;;;;;;;7.82;95.42;103942.75;5219133;28;21681;-74
2021/12/17 20:24:09;;;;;;;16.63;14.70;;;;;;;7.86;96.22;103954.91;5219586;28;20041;-75
2021/12/17 20:26:40;;;;;;;17.47;15.67;;;;;;;7.90;96.47;103951.47;5221308;28;20488;-76
2021/12/17 20:29:13;;;;;;;18.40;16.50;;;;;;;7.83;95.31;103949.72;5232075;27;20040;-76
2021/12/17 20:31:44;;;;;;;18.97;16.83;;;;;;;7.92;95.66;103951.47;5229605;27;20764;-74
2021/12/17 20:34:16;;;;;;;18.07;16.27;;;;;;;7.75;95.50;103941.84;5228315;27;20033;-78
2021/12/17 20:36:47;;;;;;;19.73;17.73;;;;;;;7.81;95.88;103946.22;5223150;28;20544;-81
2021/12/17 20:39:19;;;;;;;21.87;18.63;;;;;;;7.84;96.13;103941.88;5221620;27;20036;-76
2021/12/17 20:41:52;;;;;;;19.83;17.50;;;;;;;7.83;96.60;103947.09;5220509;28;20064;-83
2021/12/17 20:44:24;;;;;;;20.13;18.00;;;;;;;7.85;96.39;103940.16;5230223;27;20673;-82
2021/12/17 20:46:57;;;;;;;21.90;18.30;;;;;;;7.99;96.49;103953.22;5222857;28;20464;-77
2021/12/17 20:49:28;;;;;;;21.13;18.63;;;;;;;7.86;96.16;103947.09;5226544;27;20025;-77
2021/12/17 20:51:59;;;;;;;22.57;20.30;;;;;;;7.93;96.56;103945.34;5220894;28;20537;-77
2021/12/17 20:54:31;;;;;;;23.97;21.23;;;;;;;7.74;96.87;103930.56;5220287;28;20081;-76
2021/12/17 20:57:02;;;;;;;22.63;20.37;;;;;;;7.96;96.14;103946.25;5221475;28;20034;-76
2021/12/17 20:59:34;;;;;;;23.57;21.27;;;;;;;7.97;96.93;103944.50;5223464;27;20125;-73
2021/12/17 21:02:05;;;;;;;23.30;20.87;;;;;;;7.94;96.63;103953.19;5232202;27;20059;-71
2021/12/17 21:04:36;;;;;;;24.10;21.30;;;;;;;7.75;97.09;103937.50;5219608;28;20026;-76
2021/12/17 21:07:08;;;;;;;25.93;23.23;;;;;;;7.78;97.39;103941.88;5221306;28;20037;-83
2021/12/17 21:09:39;;;;;;;25.73;23.13;;;;;;;7.85;97.03;103934.94;5221701;27;20025;-82
2021/12/17 21:12:11;;;;;;;25.47;22.87;;;;;;;7.92;96.48;103947.13;5221951;28;20421;-79
2021/12/17 21:14:42;;;;;;;25.33;22.27;;;;;;;7.83;96.53;103944.47;5225726;27;20017;-79
2021/12/17 21:17:13;;;;;;;25.73;22.93;;;;;;;7.83;96.70;103936.66;5224752;28;20022;-75
2021/12/17 21:19:45;;;;;;;25.93;23.13;;;;;;;7.85;96.46;103934.94;5223122;28;20409;-84
2021/12/17 21:22:16;;;;;;;26.63;23.87;;;;;;;7.79;96.45;103940.13;5214636;28;20029;-81
2021/12/17 21:24:47;;;;;;;27.20;24.37;;;;;;;7.80;96.78;103940.13;5226229;28;20044;-83
2021/12/17 21:27:19;;;;;;;24.97;22.37;;;;;;;7.79;97.40;103938.38;5220293;28;20468;-82
2021/12/17 21:29:50;;;;;;;25.17;22.47;;;;;;;7.77;96.23;103941.88;5225296;27;20026;-76
2021/12/17 21:32:22;;;;;;;26.80;23.27;;;;;;;7.66;97.01;103929.69;5257761;27;20116;-80
2021/12/17 21:35:04;;;;;;;26.60;22.73;;;;;;;7.66;97.16;103937.50;5224967;28;20116;-83
2021/12/17 21:37:36;;;;;;;25.00;21.97;;;;;;;7.73;97.23;103936.63;5229056;27;20034;-81
2021/12/17 21:40:08;;;;;;;24.77;22.10;;;;;;;7.69;97.31;103932.28;5224815;28;20236;-76
2021/12/17 21:42:39;;;;;;;27.40;23.10;;;;;;;7.75;97.36;103931.41;5223885;28;20090;-77
2021/12/17 21:45:11;;;;;;;24.90;22.20;;;;;;;7.68;97.58;103925.31;5232692;27;20031;-77
2021/12/17 21:47:43;;;;;;;26.17;23.33;;;;;;;7.72;97.77;103934.91;5232267;27;20038;-83
2021/12/17 21:50:17;;;;;;;26.13;23.33;;;;;;;7.86;97.21;103940.16;5227082;28;20044;-77
2021/12/17 21:52:48;;;;;;;24.35;21.77;;;;;;;7.84;97.27;103936.66;5224710;28;20025;-79
2021/12/17 21:55:20;;;;;;;26.53;23.70;;;;;;;7.82;97.40;103932.31;5229430;27;20032;-79
2021/12/17 21:57:51;;;;;;;25.77;23.03;;;;;;;7.84;97.29;103935.78;5231398;28;20021;-82
2021/12/17 22:00:27;;;;;;;25.97;23.17;;;;;;;7.83;97.85;103923.59;5235164;27;20404;-78
2021/12/17 22:02:59;;;;;;;26.07;23.40;;;;;;;7.80;97.68;103924.47;5220804;28;20030;-75
2021/12/17 22:05:34;;;;;;;26.20;23.33;;;;;;;7.85;97.42;103927.94;5225953;27;20451;-80
2021/12/17 22:08:06;;;;;;;27.93;23.90;;;;;;;7.85;97.48;103921.88;5226253;27;20767;-78
2021/12/17 22:10:37;;;;;;;26.47;23.10;;;;;;;7.96;97.37;103922.75;5228778;27;20829;-86
2021/12/17 22:13:08;;;;;;;26.47;23.60;;;;;;;7.85;97.86;103921.88;5230583;27;20068;-82
2021/12/17 22:15:40;;;;;;;25.33;22.63;;;;;;;7.99;97.27;103929.72;5232614;27;20033;-79
2021/12/17 22:18:12;;;;;;;24.97;22.17;;;;;;;7.97;97.49;103927.13;5234953;27;20037;-84
2021/12/17 22:20:50;;;;;;;26.33;22.77;;;;;;;7.97;97.33;103910.59;5228288;28;20036;-79
2021/12/17 22:23:23;;;;;;;26.00;23.30;;;;;;;7.95;96.85;103920.13;5228577;27;20407;-89
2021/12/17 22:25:55;;;;;;;26.57;22.57;;;;;;;8.00;96.83;103926.22;5233995;27;20384;-80
2021/12/17 22:28:27;;;;;;;24.80;22.10;;;;;;;7.87;97.19;103925.38;5228116;27;20037;-80
2021/12/17 22:30:58;;;;;;;26.57;22.80;;;;;;;7.85;97.51;103925.34;5223611;28;20094;-81
2021/12/17 22:33:30;;;;;;;26.47;22.73;;;;;;;7.99;97.77;103925.34;5233688;27;20029;-79
2021/12/17 22:36:01;;;;;;;26.03;22.90;;;;;;;7.83;98.02;103918.38;5246715;27;20545;-75
2021/12/17 22:38:33;;;;;;;26.13;23.27;;;;;;;7.88;97.32;103932.31;5255769;27;20418;-75
2021/12/17 22:41:19;;;;;;;26.40;23.47;;;;;;;7.83;97.72;103923.59;5259611;27;20131;-78
2021/12/17 22:43:50;;;;;;;27.30;21.73;;;;;;;7.75;97.62;103927.06;5258198;27;20043;-76
2021/12/17 22:46:23;;;;;;;25.80;22.17;;;;;;;7.74;98.24;103935.78;5254385;27;20104;-73
2021/12/17 22:48:54;;;;;;;25.23;22.00;;;;;;;7.68;98.14;103920.09;5229551;27;20030;-81
2021/12/17 22:51:25;;;;;;;31.57;24.20;;;;;;;7.82;98.34;103927.09;5239532;27;20194;-74
2021/12/17 22:53:57;;;;;;;26.57;22.83;;;;;;;7.74;98.35;103927.94;5221680;28;20537;-74
2021/12/17 22:56:28;;;;;;;29.37;23.40;;;;;;;7.76;98.48;103914.91;5223734;28;20035;-73
2021/12/17 22:59:00;;;;;;;26.73;23.80;;;;;;;7.74;98.16;103919.25;5226286;28;20025;-75
2021/12/17 23:01:38;;;;;;;25.80;22.60;;;;;;;7.82;98.28;103912.28;5225597;28;20025;-75
